Hlavní strana
METAR-TAF:

METAR-TAF

Letiště :

Meknes, Maroko

zeměpisná šířka: 33-53N, zeměpisná délka: 005-32W, výška: 576 m

METAR: chybějící

Čas: 06:05 (05:05 UTC)

Předpověď počasí

Zpráva byla vytvořena před 6 hodinami a 5 minutami, v 23:00 UTC
Předpověď platná od 30 v 00 UTC do 31 v 06 UTC
Východojihovýchodní vítr 5 kt
Viditelnost 10 km a více
Žádná oblačnost pod 1500 m, nevyskytují se cumulonimby.
Změna
od 30 v 12 UTC do 30 v 16 UTC
Severozápadní vítr 10 kt
Skoro jasno ve výšce 2300 ft, Vertikální cumulus.
Změna
od 30 v 18 UTC do 30 v 22 UTC
vítr z různých směrů 3 kt
Viditelnost: 8000 m
Oblačno až skoro zataženo ve výšce 2000 ft

TAF: GMFM 292300Z 3000/3106 12005KT CAVOK BECMG 3012/3016 31010KT FEW023TCU BECMG 3018/3022 VRB03KT 8000 BKN020

Stav a předpovědi počasí z více než 4 000 letišť (zprávy METAR a TAF).

Červené a žluté tečky na mapě představují dostupné meteorologické stanice.

Když kurzor umístíte na tečku, zobrazí se název stanice.

Pak kliknutím zobrazíte stav a předpověď počasí.

Chcete-li změnit mapu, kliknutím na zelené tlačítko se znaménkem +mapu přiblížíte, kliknutím na zelené tlačítko se znaménkem – mapu oddálíte a kliknutím na zelené šipky přejdete na sousední mapy.


METAR-TAF: